createdAt,value
2018-09-19T00:01:09.855Z,16.10
2018-09-19T00:03:38.344Z,16.00
2018-09-19T00:06:08.674Z,15.70
2018-09-19T00:08:37.065Z,15.60
2018-09-19T00:11:05.659Z,15.50
2018-09-19T00:13:34.086Z,15.40
2018-09-19T00:16:02.588Z,15.40
2018-09-19T00:18:30.978Z,15.50
2018-09-19T00:20:59.412Z,15.60
2018-09-19T00:23:27.866Z,15.60
2018-09-19T00:25:56.225Z,15.50
2018-09-19T00:28:24.675Z,15.30
2018-09-19T00:30:53.104Z,15.30
2018-09-19T00:33:22.128Z,15.20
2018-09-19T00:35:50.749Z,15.20
2018-09-19T00:38:19.168Z,15.30
2018-09-19T00:40:47.594Z,15.30
2018-09-19T00:43:15.965Z,15.40
2018-09-19T00:45:44.382Z,15.30
2018-09-19T00:48:12.777Z,15.30
2018-09-19T00:50:41.192Z,15.30
2018-09-19T00:53:09.570Z,15.30
2018-09-19T00:55:37.996Z,15.20
2018-09-19T00:58:06.812Z,15.10
2018-09-19T01:00:35.266Z,15.00
2018-09-19T01:03:03.630Z,14.90
2018-09-19T01:05:32.018Z,14.90
2018-09-19T01:08:00.404Z,15.20
2018-09-19T01:10:28.800Z,15.20
2018-09-19T01:12:57.244Z,15.10
2018-09-19T01:15:25.642Z,15.00
2018-09-19T01:17:54.038Z,14.90
2018-09-19T01:20:22.444Z,14.90
2018-09-19T01:22:50.859Z,15.00
2018-09-19T01:25:19.260Z,14.90
2018-09-19T01:27:47.662Z,14.80
2018-09-19T01:30:16.062Z,14.90
2018-09-19T01:32:44.626Z,14.90
2018-09-19T01:35:13.003Z,15.10
2018-09-19T01:37:41.413Z,15.10
2018-09-19T01:40:09.813Z,15.00
2018-09-19T01:42:38.218Z,14.90
2018-09-19T01:45:06.628Z,15.00
2018-09-19T01:47:35.041Z,15.10
2018-09-19T01:50:03.499Z,15.10
2018-09-19T01:52:31.849Z,15.10
2018-09-19T01:55:00.248Z,14.90
2018-09-19T01:57:28.645Z,14.80
2018-09-19T01:59:57.078Z,14.70
2018-09-19T02:02:25.498Z,14.80
2018-09-19T02:04:53.880Z,14.90
2018-09-19T02:07:22.301Z,14.90
2018-09-19T02:09:50.674Z,14.80
2018-09-19T02:14:53.873Z,14.50
2018-09-19T02:17:22.280Z,14.50
2018-09-19T02:19:50.679Z,14.60
2018-09-19T02:22:19.069Z,14.60
2018-09-19T02:24:47.482Z,14.50
2018-09-19T02:27:15.888Z,14.40
2018-09-19T02:29:45.017Z,14.40
2018-09-19T02:32:13.421Z,14.40
2018-09-19T02:34:41.800Z,14.40
2018-09-19T02:37:10.180Z,14.30
2018-09-19T02:39:38.597Z,14.20
2018-09-19T02:42:06.969Z,14.20
2018-09-19T02:44:35.385Z,14.20
2018-09-19T02:47:03.777Z,14.40
2018-09-19T02:49:32.188Z,14.40
2018-09-19T02:52:00.595Z,14.30
2018-09-19T02:54:30.251Z,14.20
2018-09-19T02:56:58.915Z,14.20
2018-09-19T02:59:27.715Z,14.00
2018-09-19T03:01:56.096Z,13.90
2018-09-19T03:04:24.527Z,13.90
2018-09-19T03:06:52.935Z,14.10
2018-09-19T03:09:21.344Z,14.20
2018-09-19T03:11:49.732Z,14.30
2018-09-19T03:14:18.140Z,14.40
2018-09-19T03:16:46.536Z,14.60
2018-09-19T03:19:14.943Z,14.70
2018-09-19T03:21:43.353Z,14.90
2018-09-19T03:24:11.811Z,14.90
2018-09-19T03:26:40.190Z,15.00
2018-09-19T03:29:08.575Z,15.00
2018-09-19T03:31:37.000Z,15.10
2018-09-19T03:34:05.383Z,15.10
2018-09-19T03:36:33.769Z,15.10
2018-09-19T03:39:02.202Z,15.10
2018-09-19T03:41:30.597Z,15.10
2018-09-19T03:43:58.999Z,15.10
2018-09-19T03:46:27.419Z,15.10
2018-09-19T03:48:55.787Z,15.00
2018-09-19T03:51:24.185Z,14.90
2018-09-19T03:53:52.560Z,14.80
2018-09-19T03:56:20.966Z,14.80
2018-09-19T03:58:49.349Z,14.90
2018-09-19T04:01:17.778Z,14.90
2018-09-19T04:03:46.178Z,14.90
2018-09-19T04:06:14.593Z,14.90
2018-09-19T04:08:43.021Z,14.90
2018-09-19T04:11:11.392Z,14.90
2018-09-19T04:13:39.846Z,14.90
2018-09-19T04:16:08.281Z,14.90
2018-09-19T04:18:37.506Z,14.90
2018-09-19T04:21:05.983Z,14.90
2018-09-19T04:23:34.412Z,15.00
2018-09-19T04:26:02.856Z,15.00
2018-09-19T04:28:31.297Z,15.00
2018-09-19T04:30:59.704Z,15.00
2018-09-19T04:33:28.092Z,15.00
2018-09-19T04:35:56.501Z,15.00
2018-09-19T04:38:24.911Z,15.10
2018-09-19T04:40:53.322Z,15.10
2018-09-19T04:43:21.710Z,15.10
2018-09-19T04:45:50.123Z,15.10
2018-09-19T04:48:19.506Z,15.10
2018-09-19T04:50:47.958Z,15.10
2018-09-19T04:53:16.347Z,15.00
2018-09-19T04:55:44.744Z,15.00
2018-09-19T04:58:13.210Z,15.00
2018-09-19T05:00:41.608Z,15.10
2018-09-19T05:03:10.177Z,15.10
2018-09-19T05:05:38.666Z,15.10
2018-09-19T05:08:06.980Z,15.00
2018-09-19T05:10:35.584Z,15.00
2018-09-19T05:13:03.966Z,15.10
2018-09-19T05:15:32.367Z,15.10
2018-09-19T05:18:00.768Z,15.10
2018-09-19T05:20:29.193Z,15.10
2018-09-19T05:22:57.664Z,15.10
2018-09-19T05:25:26.079Z,15.20
2018-09-19T05:27:54.503Z,15.20
2018-09-19T05:30:22.882Z,15.20
2018-09-19T05:32:51.280Z,15.20
2018-09-19T05:35:19.710Z,15.20
2018-09-19T05:37:48.096Z,15.10
2018-09-19T05:40:16.506Z,15.20
2018-09-19T05:42:44.940Z,15.20
2018-09-19T05:45:13.337Z,15.10
2018-09-19T05:47:41.729Z,15.20
2018-09-19T05:50:10.153Z,15.20
2018-09-19T05:52:38.563Z,15.30
2018-09-19T05:55:06.997Z,15.50
2018-09-19T05:57:35.415Z,15.50
2018-09-19T06:00:04.085Z,15.60
2018-09-19T06:02:32.512Z,15.80
2018-09-19T06:05:00.909Z,16.00
2018-09-19T06:07:29.281Z,16.40
2018-09-19T06:09:57.740Z,16.80
2018-09-19T06:12:26.147Z,17.00
2018-09-19T06:14:54.556Z,16.80
2018-09-19T06:17:23.337Z,16.80
2018-09-19T06:19:51.776Z,16.80
2018-09-19T06:22:20.161Z,16.80
2018-09-19T06:24:48.545Z,16.90
2018-09-19T06:27:16.934Z,17.00
2018-09-19T06:29:45.326Z,17.00
2018-09-19T06:32:13.729Z,17.00
2018-09-19T06:34:42.117Z,17.00
2018-09-19T06:37:11.283Z,17.00
2018-09-19T06:39:39.631Z,17.10
2018-09-19T06:42:08.057Z,17.10
2018-09-19T06:44:36.554Z,17.20
2018-09-19T06:47:04.972Z,17.30
2018-09-19T06:49:33.371Z,17.40
2018-09-19T06:52:01.898Z,17.50
2018-09-19T06:54:30.203Z,17.60
2018-09-19T06:56:58.607Z,17.70
2018-09-19T06:59:27.010Z,17.80
2018-09-19T07:01:55.493Z,18.00
2018-09-19T07:04:23.913Z,18.00
2018-09-19T07:06:52.470Z,18.20
2018-09-19T07:09:20.860Z,18.40
2018-09-19T07:11:49.244Z,18.60
2018-09-19T07:14:17.632Z,18.80
2018-09-19T07:16:46.045Z,18.80
2018-09-19T07:19:14.753Z,18.80
2018-09-19T07:21:43.172Z,19.00
2018-09-19T07:24:11.582Z,19.10
2018-09-19T07:26:39.989Z,19.10
2018-09-19T07:29:08.543Z,19.20
2018-09-19T07:31:36.950Z,19.40
2018-09-19T07:34:05.446Z,19.30
2018-09-19T07:36:33.840Z,19.40
2018-09-19T07:39:02.288Z,19.60
2018-09-19T07:41:30.700Z,19.70
2018-09-19T07:43:59.135Z,19.80
2018-09-19T07:46:27.614Z,19.90
2018-09-19T07:48:56.012Z,20.10
2018-09-19T07:51:24.392Z,20.20
2018-09-19T07:53:52.788Z,20.20
2018-09-19T07:56:21.181Z,20.40
2018-09-19T07:58:49.637Z,20.60
2018-09-19T08:01:18.115Z,20.80
2018-09-19T08:03:46.432Z,20.90
2018-09-19T08:06:14.809Z,20.90
2018-09-19T08:08:43.196Z,21.00
2018-09-19T08:11:11.674Z,21.10
2018-09-19T08:13:40.064Z,21.10
2018-09-19T08:16:08.505Z,21.30
2018-09-19T08:18:36.913Z,21.40
2018-09-19T08:21:05.314Z,21.60
2018-09-19T08:23:33.806Z,21.80
2018-09-19T08:26:02.185Z,21.80
2018-09-19T08:28:30.590Z,21.80
2018-09-19T08:30:59.024Z,21.90
2018-09-19T08:33:27.525Z,22.00
2018-09-19T08:35:55.925Z,22.20
2018-09-19T08:38:24.312Z,22.20
2018-09-19T08:40:52.759Z,22.40
2018-09-19T08:43:21.160Z,22.60
2018-09-19T08:45:49.571Z,22.60
2018-09-19T08:48:17.963Z,22.70
2018-09-19T08:50:46.498Z,23.00
2018-09-19T08:53:14.744Z,23.00
2018-09-19T08:55:43.171Z,23.00
2018-09-19T08:58:11.665Z,23.20
2018-09-19T09:00:40.077Z,23.20
2018-09-19T09:03:08.479Z,23.30
2018-09-19T09:05:36.908Z,23.30
2018-09-19T09:08:05.536Z,23.50
2018-09-19T09:10:34.013Z,23.70
2018-09-19T09:13:02.406Z,23.80
2018-09-19T09:15:31.041Z,23.90
2018-09-19T09:17:59.525Z,24.00
2018-09-19T09:20:27.918Z,24.10
2018-09-19T09:22:56.328Z,24.40
2018-09-19T09:25:24.718Z,24.60
2018-09-19T09:27:53.135Z,24.60
2018-09-19T09:30:21.537Z,24.60
2018-09-19T09:32:49.952Z,25.00
2018-09-19T09:35:18.373Z,25.40
2018-09-19T09:37:47.083Z,25.60
2018-09-19T09:40:15.528Z,25.40
2018-09-19T09:42:43.918Z,25.20
2018-09-19T09:45:12.327Z,25.30
2018-09-19T09:47:40.784Z,25.50
2018-09-19T09:50:09.308Z,25.10
2018-09-19T09:52:37.705Z,25.00
2018-09-19T09:55:06.194Z,25.20
2018-09-19T09:57:34.609Z,25.00
2018-09-19T10:00:03.051Z,25.40
2018-09-19T10:02:31.443Z,25.90
2018-09-19T10:04:59.868Z,26.40
2018-09-19T10:07:28.255Z,26.20
2018-09-19T10:09:56.640Z,26.70
2018-09-19T10:12:25.030Z,26.20
2018-09-19T10:14:53.464Z,26.80
2018-09-19T10:17:21.884Z,26.90
2018-09-19T10:19:50.273Z,27.20
2018-09-19T10:22:18.696Z,26.40
2018-09-19T10:24:47.096Z,26.50
2018-09-19T10:27:15.525Z,26.30
2018-09-19T10:29:44.016Z,27.00
2018-09-19T10:32:12.422Z,27.20
2018-09-19T10:34:40.801Z,28.00
2018-09-19T10:37:09.228Z,27.90
2018-09-19T10:39:37.604Z,27.60
2018-09-19T10:42:05.999Z,27.20
2018-09-19T10:44:34.433Z,27.50
2018-09-19T10:47:02.859Z,27.40
2018-09-19T10:49:31.291Z,26.70
2018-09-19T10:51:59.680Z,27.60
2018-09-19T10:54:28.324Z,27.70
2018-09-19T10:56:56.794Z,28.10
2018-09-19T10:59:25.117Z,28.80
2018-09-19T11:01:53.510Z,28.50
2018-09-19T11:04:21.958Z,27.90
2018-09-19T11:06:50.413Z,28.50
2018-09-19T11:09:18.870Z,28.90
2018-09-19T11:11:47.293Z,29.90
2018-09-19T11:14:15.764Z,29.20
2018-09-19T11:16:44.172Z,28.70
2018-09-19T11:19:12.645Z,29.10
2018-09-19T11:21:41.033Z,29.00
2018-09-19T11:24:09.453Z,29.30
2018-09-19T11:26:37.834Z,28.60
2018-09-19T11:29:06.253Z,29.40
2018-09-19T11:31:34.663Z,29.60
2018-09-19T11:34:03.073Z,29.10
2018-09-19T11:36:31.481Z,28.90
2018-09-19T11:38:59.877Z,29.20
2018-09-19T11:41:28.274Z,30.00
2018-09-19T11:43:56.753Z,29.80
2018-09-19T11:46:25.125Z,29.60
2018-09-19T11:48:53.528Z,29.80
2018-09-19T11:51:21.913Z,30.40
2018-09-19T11:53:50.324Z,30.20
2018-09-19T11:56:18.812Z,29.90
2018-09-19T11:58:47.222Z,29.20
2018-09-19T12:01:15.628Z,27.90
2018-09-19T12:03:44.049Z,27.10
2018-09-19T12:06:12.464Z,26.80
2018-09-19T12:08:40.856Z,26.70
2018-09-19T12:11:09.269Z,26.60
2018-09-19T12:13:37.682Z,26.80
2018-09-19T12:16:06.113Z,27.40
2018-09-19T12:18:34.500Z,27.60
2018-09-19T12:21:03.013Z,28.20
2018-09-19T12:23:31.398Z,28.30
2018-09-19T12:25:59.798Z,27.50
2018-09-19T12:28:28.241Z,27.40
2018-09-19T12:30:56.629Z,27.10
2018-09-19T12:33:25.053Z,27.40
2018-09-19T12:35:53.484Z,27.70
2018-09-19T12:38:21.984Z,27.50
2018-09-19T12:40:50.381Z,27.90
2018-09-19T12:43:18.810Z,28.60
2018-09-19T12:45:47.209Z,29.10
2018-09-19T12:48:15.585Z,29.70
2018-09-19T12:50:43.968Z,30.20
2018-09-19T12:53:12.427Z,30.10
2018-09-19T12:55:40.816Z,29.90
2018-09-19T12:58:09.216Z,30.10
2018-09-19T13:00:37.673Z,30.60
2018-09-19T13:03:06.165Z,30.60
2018-09-19T13:05:34.555Z,30.10
2018-09-19T13:08:02.990Z,29.70
2018-09-19T13:10:31.404Z,29.30
2018-09-19T13:12:59.828Z,29.10
2018-09-19T13:15:28.201Z,29.40
2018-09-19T13:17:56.589Z,29.30
2018-09-19T13:20:24.985Z,29.20
2018-09-19T13:22:53.437Z,29.00
2018-09-19T13:25:21.892Z,29.10
2018-09-19T13:27:50.317Z,29.40
2018-09-19T13:30:18.720Z,29.10
2018-09-19T13:32:47.178Z,29.20
2018-09-19T13:35:15.562Z,29.40
2018-09-19T13:37:43.948Z,28.90
2018-09-19T13:40:13.174Z,28.30
2018-09-19T13:42:41.578Z,28.00
2018-09-19T13:45:10.913Z,28.10
2018-09-19T13:47:39.572Z,28.20
2018-09-19T13:50:17.192Z,28.30
2018-09-19T13:52:45.614Z,28.40
2018-09-19T13:55:14.004Z,28.30
2018-09-19T13:57:42.383Z,28.20
2018-09-19T14:00:10.781Z,28.20
2018-09-19T14:02:39.257Z,28.20
2018-09-19T14:05:07.676Z,28.20
2018-09-19T14:07:36.081Z,27.80
2018-09-19T14:10:04.821Z,27.70
2018-09-19T14:12:33.248Z,28.00
2018-09-19T14:15:01.712Z,28.00
2018-09-19T14:17:30.194Z,27.60
2018-09-19T14:19:58.621Z,27.70
2018-09-19T14:22:27.165Z,27.70
2018-09-19T14:24:55.582Z,27.60
2018-09-19T14:27:23.984Z,27.50
2018-09-19T14:29:52.504Z,27.60
2018-09-19T14:32:20.910Z,27.80
2018-09-19T14:34:49.280Z,27.80
2018-09-19T14:37:17.984Z,28.00
2018-09-19T14:39:46.384Z,27.90
2018-09-19T14:42:14.782Z,27.80
2018-09-19T14:44:43.213Z,27.60
2018-09-19T14:47:11.640Z,27.80
2018-09-19T14:49:40.070Z,27.60
2018-09-19T14:52:08.592Z,27.50
2018-09-19T14:54:37.042Z,27.60
2018-09-19T14:57:05.428Z,27.70
2018-09-19T14:59:33.844Z,27.50
2018-09-19T15:02:02.340Z,27.60
2018-09-19T15:04:30.745Z,27.70
2018-09-19T15:06:59.145Z,27.70
2018-09-19T15:09:27.597Z,27.60
2018-09-19T15:11:56.011Z,27.70
2018-09-19T15:14:24.383Z,27.60
2018-09-19T15:16:52.788Z,27.60
2018-09-19T15:19:21.180Z,27.40
2018-09-19T15:21:49.603Z,27.30
2018-09-19T15:24:18.039Z,27.40
2018-09-19T15:26:46.416Z,27.30
2018-09-19T15:29:14.866Z,27.20
2018-09-19T15:31:43.240Z,27.10
2018-09-19T15:34:11.656Z,27.10
2018-09-19T15:36:40.088Z,27.10
2018-09-19T15:39:09.288Z,27.10
2018-09-19T15:41:37.750Z,27.20
2018-09-19T15:44:06.605Z,27.20
2018-09-19T15:46:35.672Z,27.20
2018-09-19T15:49:04.086Z,27.40
2018-09-19T15:51:32.513Z,27.30
2018-09-19T15:54:00.997Z,27.20
2018-09-19T15:56:29.396Z,27.10
2018-09-19T15:58:57.820Z,27.20
2018-09-19T16:01:26.216Z,27.10
2018-09-19T16:03:54.653Z,27.10
2018-09-19T16:06:23.318Z,27.00
2018-09-19T16:08:51.734Z,26.90
2018-09-19T16:11:20.285Z,26.90
2018-09-19T16:13:48.956Z,26.80
2018-09-19T16:16:17.345Z,26.70
2018-09-19T16:18:45.889Z,26.70
2018-09-19T16:21:14.341Z,26.50
2018-09-19T16:23:42.821Z,26.40
2018-09-19T16:26:11.481Z,26.20
2018-09-19T16:28:40.138Z,26.00
2018-09-19T16:31:09.044Z,25.90
2018-09-19T16:33:37.464Z,25.90
2018-09-19T16:36:06.099Z,25.80
2018-09-19T16:38:34.514Z,25.80
2018-09-19T16:41:02.928Z,25.70
2018-09-19T16:43:31.332Z,25.70
2018-09-19T16:45:59.737Z,25.60
2018-09-19T16:48:28.196Z,25.60
2018-09-19T16:50:56.649Z,25.50
2018-09-19T16:53:25.041Z,25.40
2018-09-19T16:55:53.510Z,25.30
2018-09-19T16:58:22.037Z,25.20
2018-09-19T17:00:50.532Z,25.10
2018-09-19T17:03:19.011Z,25.00
2018-09-19T17:05:48.117Z,25.00
2018-09-19T17:08:16.483Z,24.80
2018-09-19T17:10:45.782Z,24.80
2018-09-19T17:13:14.260Z,24.60
2018-09-19T17:15:42.822Z,24.60
2018-09-19T17:18:11.158Z,24.40
2018-09-19T17:20:39.569Z,24.30
2018-09-19T17:23:08.097Z,24.20
2018-09-19T17:25:36.535Z,24.00
2018-09-19T17:28:04.932Z,23.90
2018-09-19T17:30:33.377Z,23.90
2018-09-19T17:33:01.816Z,23.80
2018-09-19T17:35:30.213Z,23.70
2018-09-19T17:37:58.738Z,23.60
2018-09-19T17:40:27.248Z,23.50
2018-09-19T17:42:55.746Z,23.40
2018-09-19T17:45:24.300Z,23.30
2018-09-19T17:47:52.857Z,23.30
2018-09-19T17:50:21.256Z,23.10
2018-09-19T17:52:49.736Z,23.00
2018-09-19T17:55:18.156Z,22.90
2018-09-19T17:57:46.656Z,22.80
2018-09-19T18:00:15.141Z,22.70
2018-09-19T18:02:43.729Z,22.60
2018-09-19T18:05:12.161Z,22.60
2018-09-19T18:07:40.645Z,22.50
2018-09-19T18:10:09.127Z,22.40
2018-09-19T18:12:37.773Z,22.30
2018-09-19T18:15:06.746Z,22.30
2018-09-19T18:17:35.189Z,22.20
2018-09-19T18:20:03.787Z,22.10
2018-09-19T18:22:32.213Z,22.10
2018-09-19T18:25:00.653Z,22.00
2018-09-19T18:27:29.225Z,21.90
2018-09-19T18:29:57.664Z,21.80
2018-09-19T18:32:26.062Z,21.70
2018-09-19T18:34:54.532Z,21.70
2018-09-19T18:37:22.929Z,21.60
2018-09-19T18:39:51.382Z,21.60
2018-09-19T18:42:19.917Z,21.50
2018-09-19T18:44:48.372Z,21.40
2018-09-19T18:47:16.784Z,21.30
2018-09-19T18:49:45.252Z,21.20
2018-09-19T18:52:13.738Z,21.10
2018-09-19T18:54:42.237Z,20.90
2018-09-19T18:57:10.729Z,20.80
2018-09-19T18:59:39.180Z,20.70
2018-09-19T19:02:07.674Z,20.60
2018-09-19T19:04:36.161Z,20.60
2018-09-19T19:07:04.584Z,20.50
2018-09-19T19:09:33.276Z,20.50
2018-09-19T19:12:01.696Z,20.40
2018-09-19T19:14:30.156Z,20.30
2018-09-19T19:16:58.617Z,20.30
2018-09-19T19:19:27.050Z,20.30
2018-09-19T19:21:55.473Z,20.10
2018-09-19T19:24:23.905Z,20.00
2018-09-19T19:26:52.355Z,19.90
2018-09-19T19:31:49.108Z,19.90
2018-09-19T19:34:17.581Z,19.70
2018-09-19T19:36:46.013Z,19.70
2018-09-19T19:39:14.443Z,19.60
2018-09-19T19:41:43.018Z,19.50
2018-09-19T19:44:11.448Z,19.40
2018-09-19T19:46:40.024Z,19.50
2018-09-19T19:49:08.438Z,19.50
2018-09-19T19:51:36.893Z,19.50
2018-09-19T19:54:05.340Z,19.50
2018-09-19T19:56:33.890Z,19.30
2018-09-19T19:59:02.331Z,19.30
2018-09-19T20:01:30.925Z,19.20
2018-09-19T20:03:59.334Z,19.20
2018-09-19T20:06:27.802Z,19.20
2018-09-19T20:08:56.213Z,19.10
2018-09-19T20:11:24.631Z,19.10
2018-09-19T20:13:53.029Z,18.90
2018-09-19T20:16:21.583Z,19.00
2018-09-19T20:18:50.137Z,18.90
2018-09-19T20:21:18.511Z,18.70
2018-09-19T20:23:47.014Z,18.70
2018-09-19T20:26:15.566Z,18.70
2018-09-19T20:28:43.948Z,18.60
2018-09-19T20:31:12.332Z,18.60
2018-09-19T20:33:40.970Z,18.60
2018-09-19T20:36:09.338Z,18.50
2018-09-19T20:38:37.745Z,18.60
2018-09-19T20:41:06.177Z,18.50
2018-09-19T20:43:34.629Z,18.50
2018-09-19T20:46:03.047Z,18.50
2018-09-19T20:48:31.462Z,18.50
2018-09-19T20:50:59.853Z,18.50
2018-09-19T20:53:28.320Z,18.50
2018-09-19T20:55:56.800Z,18.50
2018-09-19T20:58:25.197Z,18.50
2018-09-19T21:00:53.578Z,18.50
2018-09-19T21:03:21.993Z,18.40
2018-09-19T21:05:50.385Z,18.40
2018-09-19T21:08:18.806Z,18.40
2018-09-19T21:10:47.209Z,18.40
2018-09-19T21:13:15.690Z,18.40
2018-09-19T21:15:44.166Z,18.40
2018-09-19T21:18:12.662Z,18.40
2018-09-19T21:20:41.061Z,18.40
2018-09-19T21:23:09.469Z,18.40
2018-09-19T21:25:37.890Z,18.40
2018-09-19T21:28:06.307Z,18.40
2018-09-19T21:30:34.722Z,18.30
2018-09-19T21:33:03.192Z,18.20
2018-09-19T21:35:31.613Z,18.10
2018-09-19T21:38:00.080Z,18.00
2018-09-19T21:40:28.532Z,17.90
2018-09-19T21:42:56.936Z,17.90
2018-09-19T21:45:25.341Z,18.00
2018-09-19T21:47:53.761Z,18.10
2018-09-19T21:50:22.170Z,18.20
2018-09-19T21:52:50.573Z,18.20
2018-09-19T21:55:19.010Z,18.20
2018-09-19T21:57:47.397Z,18.10
2018-09-19T22:00:16.194Z,18.10
2018-09-19T22:02:44.633Z,18.20
2018-09-19T22:05:13.217Z,18.10
2018-09-19T22:07:41.577Z,18.00
2018-09-19T22:10:09.956Z,17.90
2018-09-19T22:12:38.433Z,17.90
2018-09-19T22:15:06.879Z,17.80
2018-09-19T22:17:35.283Z,17.80
2018-09-19T22:20:03.729Z,17.80
2018-09-19T22:22:32.157Z,17.80
2018-09-19T22:25:00.557Z,17.80
2018-09-19T22:27:29.061Z,18.00
2018-09-19T22:29:57.449Z,18.20
2018-09-19T22:32:25.848Z,18.20
2018-09-19T22:34:54.264Z,18.30
2018-09-19T22:37:22.673Z,18.40
2018-09-19T22:39:51.076Z,18.50
2018-09-19T22:42:19.510Z,18.50
2018-09-19T22:44:47.973Z,18.50
2018-09-19T22:47:16.406Z,18.50
2018-09-19T22:49:44.795Z,18.50
2018-09-19T22:52:13.188Z,18.50
2018-09-19T22:54:41.600Z,18.50
2018-09-19T22:57:10.000Z,18.50
2018-09-19T22:59:38.399Z,18.50
2018-09-19T23:02:06.780Z,18.50
2018-09-19T23:04:35.203Z,18.50
2018-09-19T23:07:03.593Z,18.60
2018-09-19T23:09:31.996Z,18.50
2018-09-19T23:12:00.426Z,18.50
2018-09-19T23:14:28.813Z,18.50
2018-09-19T23:16:57.221Z,18.50
2018-09-19T23:19:25.615Z,18.40
2018-09-19T23:21:54.204Z,18.40
2018-09-19T23:24:22.604Z,18.40
2018-09-19T23:26:51.013Z,18.40
2018-09-19T23:29:19.416Z,18.30
2018-09-19T23:31:47.820Z,18.30
2018-09-19T23:34:16.196Z,18.30
2018-09-19T23:36:44.601Z,18.30
2018-09-19T23:39:13.025Z,18.30
2018-09-19T23:41:41.430Z,18.20
2018-09-19T23:44:09.807Z,17.90
2018-09-19T23:46:38.230Z,17.80
2018-09-19T23:49:06.897Z,17.70
2018-09-19T23:51:35.276Z,17.60
2018-09-19T23:54:03.683Z,17.50
2018-09-19T23:56:32.306Z,17.40
2018-09-19T23:59:00.693Z,17.40
